Time;durP1;ratioP1;P1;durP2;ratioP2;P2;SDS_P1;SDS_P2;PMS_P1;PMS_P2;Temp;Humidity;BMP_temperature;BMP_pressure;BME280_temperature;BME280_humidity;BME280_pressure;Samples;Min_cycle;Max_cycle;Signal;HPM_P1;HPM_P2
2022/08/06 00:02:18;;;;;;;;;;;;;;;26.03;47.08;100892.72;5074688;28;2144;-40
2022/08/06 00:04:54;;;;;;;;;;;;;;;26.23;47.10;100898.22;5074319;28;1078;-43
2022/08/06 00:07:23;;;;;;;;;;;;;;;26.27;47.14;100894.28;5074358;28;1240;-42
2022/08/06 00:09:52;;;;;;;;;;;;;;;26.00;47.87;100897.47;5074820;28;1150;-42
2022/08/06 00:12:26;;;;;;;;;;;;;;;26.08;47.46;100895.00;5071684;28;1252;-42
2022/08/06 00:14:55;;;;;;;;;;;;;;;26.15;47.00;100893.53;5072479;28;1992;-40
2022/08/06 00:17:24;;;;;;;;;;;;;;;26.03;47.09;100905.22;5072615;28;1258;-41
2022/08/06 00:19:59;;;;;;;;;;;;;;;26.05;46.46;100903.28;5071862;28;966;-41
2022/08/06 00:22:26;;;;;;;;;;;;;;;26.03;46.42;100898.06;5072487;28;1177;-42
2022/08/06 00:24:54;;;;;;;;;;;;;;;26.06;46.36;100896.94;5072974;28;1135;-43
2022/08/06 00:27:21;;;;;;;;;;;;;;;26.11;45.74;100897.41;5073161;28;1209;-41
2022/08/06 00:29:56;;;;;;;;;;;;;;;26.21;45.86;100905.50;5073703;28;1045;-40
2022/08/06 00:32:31;;;;;;;;;;;;;;;26.21;46.02;100911.69;5074348;28;1344;-40
2022/08/06 00:34:58;;;;;;;;;;;;;;;26.20;45.96;100918.03;5073199;28;2008;-42
2022/08/06 00:37:26;;;;;;;;;;;;;;;26.24;46.06;100916.75;5073993;28;1246;-40
2022/08/06 00:40:14;;;;;;;;;;;;;;;26.27;46.03;100913.81;5074155;28;2000;-40
2022/08/06 00:42:50;;;;;;;;;;;;;;;26.29;45.87;100911.91;5073604;28;1276;-39
2022/08/06 00:45:20;;;;;;;;;;;;;;;26.25;45.55;100907.78;5073814;28;1020;-42
2022/08/06 00:47:50;;;;;;;;;;;;;;;26.21;46.04;100906.34;5073973;28;1344;-39
2022/08/06 00:50:33;;;;;;;;;;;;;;;26.05;46.59;100908.63;5073655;28;1045;-40
2022/08/06 00:53:00;;;;;;;;;;;;;;;26.27;45.79;100910.31;5073269;28;1170;-39
2022/08/06 00:55:28;;;;;;;;;;;;;;;26.33;45.80;100905.28;5073511;28;1993;-39
2022/08/06 00:58:03;;;;;;;;;;;;;;;26.17;46.69;100896.06;5073345;28;1219;-40
2022/08/06 01:00:30;;;;;;;;;;;;;;;26.22;46.29;100900.03;5073476;28;1012;-39
2022/08/06 01:03:04;;;;;;;;;;;;;;;25.99;47.15;100907.28;5072965;28;1323;-39
2022/08/06 01:05:31;;;;;;;;;;;;;;;26.30;46.26;100899.34;5071890;28;1104;-39
2022/08/06 01:08:18;;;;;;;;;;;;;;;26.33;46.25;100907.97;5071493;28;2422;-41
2022/08/06 01:10:45;;;;;;;;;;;;;;;26.25;45.72;100899.78;5071739;28;1013;-41
2022/08/06 01:13:15;;;;;;;;;;;;;;;26.15;45.62;100909.53;5071824;28;1184;-41
2022/08/06 01:16:09;;;;;;;;;;;;;;;26.01;46.07;100909.84;5071169;28;2400;-40
2022/08/06 01:18:43;;;;;;;;;;;;;;;25.89;45.56;100906.41;5071797;28;1279;-41
2022/08/06 01:21:43;;;;;;;;;;;;;;;25.84;45.91;100900.59;5070977;28;731;-39
2022/08/06 01:24:33;;;;;;;;;;;;;;;25.82;46.38;100904.38;5071454;28;2019;-40
2022/08/06 01:27:29;;;;;;;;;;;;;;;25.86;46.70;100901.31;5071007;28;1137;-39
2022/08/06 01:30:05;;;;;;;;;;;;;;;25.89;46.62;100910.88;5050107;28;1180;-41
2022/08/06 01:32:35;;;;;;;;;;;;;;;25.91;46.45;100904.44;5071418;28;1240;-42
2022/08/06 01:35:14;;;;;;;;;;;;;;;25.97;46.22;100905.75;5071184;28;2011;-39
2022/08/06 01:38:11;;;;;;;;;;;;;;;26.03;46.04;100898.06;5071552;28;2259;-41
2022/08/06 01:40:45;;;;;;;;;;;;;;;26.04;46.01;100899.75;5072864;28;1020;-41
2022/08/06 01:43:19;;;;;;;;;;;;;;;26.06;45.55;100896.94;5072676;28;1247;-43
2022/08/06 01:46:07;;;;;;;;;;;;;;;26.06;45.49;100899.63;5072335;28;2123;-41
2022/08/06 01:48:37;;;;;;;;;;;;;;;26.15;45.38;100896.19;5059053;28;1331;-41
2022/08/06 01:51:07;;;;;;;;;;;;;;;26.15;45.31;100893.53;5052801;28;1013;-41
2022/08/06 01:53:54;;;;;;;;;;;;;;;26.22;45.09;100901.84;5052758;28;2149;-41
2022/08/06 01:56:34;;;;;;;;;;;;;;;26.21;45.56;100894.81;5052460;28;640;-40
2022/08/06 01:59:22;;;;;;;;;;;;;;;26.25;44.54;100901.59;5052687;28;2319;-43
2022/08/06 02:01:51;;;;;;;;;;;;;;;26.31;44.08;100895.72;5052448;28;1181;-42
2022/08/06 02:04:22;;;;;;;;;;;;;;;26.28;44.70;100902.19;5052869;28;1077;-40
2022/08/06 02:06:50;;;;;;;;;;;;;;;26.28;44.49;100907.53;5052330;28;1185;-41
2022/08/06 02:09:19;;;;;;;;;;;;;;;26.36;44.87;100910.38;5052140;28;1013;-41
2022/08/06 02:11:55;;;;;;;;;;;;;;;26.35;44.52;100911.38;5050486;28;1253;-39
2022/08/06 02:14:32;;;;;;;;;;;;;;;26.32;45.06;100905.44;5050386;28;1994;-41
2022/08/06 02:17:02;;;;;;;;;;;;;;;26.28;44.81;100904.84;5050493;28;1275;-43
2022/08/06 02:19:44;;;;;;;;;;;;;;;26.50;43.49;100910.03;5050275;28;962;-41
2022/08/06 02:22:33;;;;;;;;;;;;;;;26.44;43.52;100901.69;5065673;28;2108;-37
2022/08/06 02:25:03;;;;;;;;;;;;;;;26.42;43.92;100904.50;5070121;28;1171;-41
2022/08/06 02:27:48;;;;;;;;;;;;;;;26.43;43.66;100900.00;5072414;28;1272;-41
2022/08/06 02:30:25;;;;;;;;;;;;;;;26.56;42.89;100896.13;5072429;28;1167;-43
2022/08/06 02:33:00;;;;;;;;;;;;;;;26.64;42.50;100898.13;5071499;28;1343;-41
2022/08/06 02:35:29;;;;;;;;;;;;;;;26.70;42.35;100899.41;5072043;28;1946;-40
2022/08/06 02:38:03;;;;;;;;;;;;;;;26.60;42.59;100899.38;5072108;28;1260;-39
2022/08/06 02:40:36;;;;;;;;;;;;;;;26.57;42.60;100897.81;5072327;28;1024;-39
2022/08/06 02:43:16;;;;;;;;;;;;;;;26.61;42.42;100891.22;5075736;28;1798;-39
2022/08/06 02:45:57;;;;;;;;;;;;;;;26.65;42.33;100886.47;5076137;28;1815;-40
2022/08/06 02:48:30;;;;;;;;;;;;;;;26.64;42.34;100876.75;5076128;28;1284;-40
2022/08/06 02:50:59;;;;;;;;;;;;;;;26.69;42.33;100879.03;5076068;28;1005;-41
2022/08/06 02:53:32;;;;;;;;;;;;;;;26.75;42.25;100878.50;5074623;28;1292;-40
2022/08/06 02:56:11;;;;;;;;;;;;;;;26.78;41.95;100878.22;5075810;28;1909;-40
2022/08/06 02:58:43;;;;;;;;;;;;;;;26.80;42.21;100881.63;5075952;28;1319;-39
2022/08/06 03:01:27;;;;;;;;;;;;;;;26.75;42.77;100881.16;5075895;28;1096;-40
2022/08/06 03:04:04;;;;;;;;;;;;;;;26.74;42.60;100879.47;5075943;28;1103;-40
2022/08/06 03:06:35;;;;;;;;;;;;;;;26.78;42.30;100873.69;5075424;28;1065;-41
2022/08/06 03:09:05;;;;;;;;;;;;;;;26.77;41.87;100876.50;5074638;28;1013;-39
2022/08/06 03:11:34;;;;;;;;;;;;;;;26.81;41.62;100880.66;5075613;28;1103;-39
2022/08/06 03:14:05;;;;;;;;;;;;;;;26.74;41.59;100876.78;5075569;28;1914;-39
2022/08/06 03:16:52;;;;;;;;;;;;;;;26.72;42.86;100892.94;5075522;28;2198;-39
2022/08/06 03:19:25;;;;;;;;;;;;;;;26.70;42.83;100886.03;5075343;28;1192;-40
2022/08/06 03:22:12;;;;;;;;;;;;;;;26.72;42.74;100887.59;5075336;28;2437;-42
2022/08/06 03:25:00;;;;;;;;;;;;;;;26.66;43.12;100893.47;5075806;28;2149;-39
2022/08/06 03:27:30;;;;;;;;;;;;;;;26.55;43.75;100882.91;5075219;28;1287;-41
2022/08/06 03:30:09;;;;;;;;;;;;;;;26.48;43.75;100887.94;5075416;28;1228;-40
2022/08/06 03:32:37;;;;;;;;;;;;;;;26.44;44.27;100881.19;5075505;28;1295;-39
2022/08/06 03:35:19;;;;;;;;;;;;;;;26.43;44.22;100881.31;5075009;28;1902;-40
2022/08/06 03:38:08;;;;;;;;;;;;;;;26.41;44.78;100881.47;5073542;28;2326;-43
2022/08/06 03:40:36;;;;;;;;;;;;;;;26.67;42.20;100880.97;5075364;28;1140;-40
2022/08/06 03:43:03;;;;;;;;;;;;;;;26.65;42.95;100882.94;5074930;28;1155;-39
2022/08/06 03:45:36;;;;;;;;;;;;;;;26.40;44.67;100886.91;5075144;28;1100;-39
2022/08/06 03:48:23;;;;;;;;;;;;;;;26.35;45.83;100884.66;5075134;28;1597;-40
2022/08/06 03:51:05;;;;;;;;;;;;;;;26.19;45.84;100889.63;5074929;28;1072;-40
2022/08/06 03:53:36;;;;;;;;;;;;;;;26.26;46.35;100888.13;5072409;28;1404;-40
2022/08/06 03:56:06;;;;;;;;;;;;;;;26.22;46.92;100886.69;5074481;28;1914;-41
2022/08/06 03:58:41;;;;;;;;;;;;;;;26.20;47.48;100887.81;5074748;28;1284;-38
2022/08/06 04:01:10;;;;;;;;;;;;;;;26.19;47.63;100878.09;5074697;28;1012;-39
2022/08/06 04:03:38;;;;;;;;;;;;;;;26.17;47.67;100883.56;5074866;28;1201;-41
2022/08/06 04:06:09;;;;;;;;;;;;;;;26.26;47.27;100885.44;5074552;28;1297;-42
2022/08/06 04:08:42;;;;;;;;;;;;;;;26.20;47.55;100883.31;5073721;28;1403;-40
2022/08/06 04:11:10;;;;;;;;;;;;;;;26.26;47.06;100889.94;5074536;28;840;-40
2022/08/06 04:13:58;;;;;;;;;;;;;;;26.22;44.79;100881.34;5074716;28;2011;-40
2022/08/06 04:16:33;;;;;;;;;;;;;;;26.21;45.11;100889.47;5074249;28;1906;-39
2022/08/06 04:19:06;;;;;;;;;;;;;;;26.49;43.27;100883.44;5074576;28;1347;-41
2022/08/06 04:21:38;;;;;;;;;;;;;;;26.53;45.31;100888.41;5074444;28;1124;-40
2022/08/06 04:24:24;;;;;;;;;;;;;;;26.48;43.94;100887.94;5074186;28;2183;-40
2022/08/06 04:26:58;;;;;;;;;;;;;;;26.27;45.53;100889.78;5073877;28;1426;-39
2022/08/06 04:29:31;;;;;;;;;;;;;;;26.30;45.29;100894.88;5074251;28;1116;-41
2022/08/06 04:32:18;;;;;;;;;;;;;;;26.28;45.13;100890.66;5074073;28;2337;-41
2022/08/06 04:34:57;;;;;;;;;;;;;;;26.23;44.07;100893.72;5073714;28;1918;-40
2022/08/06 04:37:43;;;;;;;;;;;;;;;26.21;45.02;100893.00;5074322;28;3214;-41
2022/08/06 04:40:17;;;;;;;;;;;;;;;26.27;45.06;100899.63;5074370;28;1036;-39
2022/08/06 04:43:00;;;;;;;;;;;;;;;26.24;44.99;100900.75;5074078;28;1700;-39
2022/08/06 04:45:28;;;;;;;;;;;;;;;26.15;44.96;100904.19;5073835;28;1052;-40
2022/08/06 04:48:15;;;;;;;;;;;;;;;26.25;45.00;100905.13;5073526;28;2279;-42
2022/08/06 04:50:47;;;;;;;;;;;;;;;26.17;45.40;100914.75;5073634;28;1029;-39
2022/08/06 04:53:15;;;;;;;;;;;;;;;26.21;46.38;100919.69;5073510;28;1339;-39
2022/08/06 04:56:02;;;;;;;;;;;;;;;26.50;44.72;100917.19;5073344;28;2966;-38
2022/08/06 04:58:30;;;;;;;;;;;;;;;26.51;42.12;100921.53;5073363;28;1177;-41
2022/08/06 05:00:58;;;;;;;;;;;;;;;26.58;41.28;100920.03;5073442;28;1065;-41
2022/08/06 05:03:36;;;;;;;;;;;;;;;26.49;41.75;100920.84;5073702;28;1292;-43
2022/08/06 05:06:40;;;;;;;;;;;;;;;26.48;41.71;100925.31;5073464;28;2099;-39
2022/08/06 05:09:22;;;;;;;;;;;;;;;26.48;41.54;100919.13;5073512;28;1123;-40
2022/08/06 05:12:15;;;;;;;;;;;;;;;26.45;41.38;100917.59;5073096;28;2181;-40
2022/08/06 05:14:47;;;;;;;;;;;;;;;26.43;41.82;100919.56;5073074;28;1922;-41
2022/08/06 05:17:16;;;;;;;;;;;;;;;26.40;42.03;100913.63;5071743;28;1193;-40
2022/08/06 05:19:50;;;;;;;;;;;;;;;26.45;41.75;100925.59;5073033;28;1141;-39
2022/08/06 05:22:17;;;;;;;;;;;;;;;26.36;42.10;100917.53;5072760;28;1407;-40
2022/08/06 05:25:05;;;;;;;;;;;;;;;26.40;42.33;100926.97;5073363;28;2163;-39
2022/08/06 05:27:43;;;;;;;;;;;;;;;26.46;41.87;100921.09;5072714;28;1378;-39
2022/08/06 05:30:30;;;;;;;;;;;;;;;26.47;41.47;100923.66;5072931;28;2179;-39
2022/08/06 05:32:58;;;;;;;;;;;;;;;26.43;41.75;100916.88;5072899;28;1193;-39
2022/08/06 05:35:28;;;;;;;;;;;;;;;26.50;41.92;100918.06;5073028;28;1918;-40
2022/08/06 05:38:07;;;;;;;;;;;;;;;26.56;41.23;100927.34;5072914;28;1257;-39
2022/08/06 05:40:36;;;;;;;;;;;;;;;26.63;41.00;100923.13;5073006;28;1103;-42
2022/08/06 05:43:23;;;;;;;;;;;;;;;26.70;41.03;100924.31;5072799;28;1391;-40
2022/08/06 05:45:53;;;;;;;;;;;;;;;26.68;41.16;100941.47;5072803;28;1037;-40
2022/08/06 05:48:21;;;;;;;;;;;;;;;26.80;41.15;100935.06;5072544;28;1260;-39
2022/08/06 05:51:05;;;;;;;;;;;;;;;26.84;40.88;100933.84;5072754;28;1056;-42
2022/08/06 05:53:47;;;;;;;;;;;;;;;26.88;41.15;100936.09;5072799;28;1406;-41
2022/08/06 05:56:31;;;;;;;;;;;;;;;26.94;40.98;100940.03;5072646;28;1913;-39
2022/08/06 05:59:07;;;;;;;;;;;;;;;26.94;41.04;100942.72;5071856;28;1133;-40
2022/08/06 06:01:55;;;;;;;;;;;;;;;27.07;40.70;100937.97;5070884;28;2037;-41
2022/08/06 06:04:23;;;;;;;;;;;;;;;27.11;40.50;100934.06;5070952;28;1126;-41
2022/08/06 06:06:59;;;;;;;;;;;;;;;27.13;40.46;100943.63;5070565;28;1378;-40
2022/08/06 06:09:30;;;;;;;;;;;;;;;27.12;40.50;100939.25;5071220;28;1080;-40
2022/08/06 06:12:17;;;;;;;;;;;;;;;27.23;40.30;100946.34;5070902;28;1987;-40
2022/08/06 06:14:57;;;;;;;;;;;;;;;27.28;40.13;100941.41;5069234;28;1918;-41
2022/08/06 06:17:43;;;;;;;;;;;;;;;27.32;40.26;100942.81;5073497;28;1308;-40
2022/08/06 06:20:14;;;;;;;;;;;;;;;27.40;40.05;100945.66;5077027;28;1139;-40
2022/08/06 06:22:50;;;;;;;;;;;;;;;27.37;40.20;100948.59;5076502;28;1303;-40
2022/08/06 06:25:35;;;;;;;;;;;;;;;27.46;40.13;100949.63;5076358;28;1119;-43
2022/08/06 06:28:09;;;;;;;;;;;;;;;27.48;40.39;100948.50;5076178;28;1216;-41
2022/08/06 06:30:58;;;;;;;;;;;;;;;27.53;40.23;100940.06;5076101;28;1108;-42
2022/08/06 06:33:34;;;;;;;;;;;;;;;27.55;40.06;100944.28;5076310;28;1321;-40
2022/08/06 06:36:30;;;;;;;;;;;;;;;27.54;40.40;100934.56;5076359;28;1976;-40
2022/08/06 06:39:08;;;;;;;;;;;;;;;27.68;39.96;100944.03;5071156;28;1426;-40
2022/08/06 06:41:40;;;;;;;;;;;;;;;27.56;40.53;100950.50;5076065;28;1108;-41
2022/08/06 06:44:19;;;;;;;;;;;;;;;27.73;39.83;100947.09;5076020;28;1064;-41
2022/08/06 06:47:29;;;;;;;;;;;;;;;27.93;39.05;100943.47;5075769;28;2231;-41
2022/08/06 06:50:11;;;;;;;;;;;;;;;27.82;40.20;100934.69;5075933;28;1396;-40
2022/08/06 06:52:44;;;;;;;;;;;;;;;27.89;39.75;100946.53;5075747;28;1354;-41
2022/08/06 06:55:32;;;;;;;;;;;;;;;27.97;39.47;100944.00;5075737;28;1968;-38
2022/08/06 06:58:31;;;;;;;;;;;;;;;28.15;39.09;100943.16;5075734;28;2226;-41
2022/08/06 07:00:59;;;;;;;;;;;;;;;27.83;40.65;100947.13;5075506;28;1032;-41
2022/08/06 07:03:47;;;;;;;;;;;;;;;27.88;40.23;100948.38;5075833;28;2328;-40
2022/08/06 07:06:15;;;;;;;;;;;;;;;27.96;39.99;100953.03;5075628;28;1092;-40
2022/08/06 07:09:02;;;;;;;;;;;;;;;28.17;39.32;100953.75;5074894;28;2082;-40
2022/08/06 07:11:43;;;;;;;;;;;;;;;28.66;38.05;100948.16;5075649;28;1276;-41
2022/08/06 07:14:29;;;;;;;;;;;;;;;28.55;38.75;100942.91;5075529;28;1032;-45
2022/08/06 07:17:00;;;;;;;;;;;;;;;28.46;38.99;100948.31;5075240;28;1914;-41
2022/08/06 07:19:49;;;;;;;;;;;;;;;28.49;39.14;100953.38;5075963;28;1980;-41
2022/08/06 07:22:17;;;;;;;;;;;;;;;28.43;39.22;100957.47;5075197;28;1319;-40
2022/08/06 07:24:43;;;;;;;;;;;;;;;28.32;39.61;100957.66;5075374;28;1045;-41
2022/08/06 07:27:13;;;;;;;;;;;;;;;28.39;39.54;100961.44;5074960;28;1216;-41
2022/08/06 07:29:41;;;;;;;;;;;;;;;28.06;40.60;100965.44;5075351;28;1037;-42
2022/08/06 07:32:27;;;;;;;;;;;;;;;28.06;40.67;100964.59;5075368;28;1863;-41
2022/08/06 07:34:59;;;;;;;;;;;;;;;28.19;40.76;100962.47;5075059;28;1370;-42
2022/08/06 07:37:26;;;;;;;;;;;;;;;28.26;40.58;100965.44;5074650;28;1981;-43
2022/08/06 07:40:06;;;;;;;;;;;;;;;28.13;41.00;100965.72;5075278;28;1225;-41
2022/08/06 07:42:36;;;;;;;;;;;;;;;28.12;41.42;100966.69;5074989;28;1287;-42
2022/08/06 07:45:04;;;;;;;;;;;;;;;28.32;41.03;100964.84;5074614;28;1112;-41
2022/08/06 07:47:42;;;;;;;;;;;;;;;28.18;41.65;100960.78;5074723;28;1350;-42
2022/08/06 07:50:22;;;;;;;;;;;;;;;28.16;41.91;100968.13;5074686;28;1092;-44
2022/08/06 07:52:54;;;;;;;;;;;;;;;28.14;42.17;100970.94;5074178;28;1313;-44
2022/08/06 07:55:24;;;;;;;;;;;;;;;28.14;42.45;100965.59;5074510;28;1918;-41
2022/08/06 07:58:07;;;;;;;;;;;;;;;28.32;42.32;100963.03;5074614;28;1295;-46
2022/08/06 08:00:34;;;;;;;;;;;;;;;28.26;42.20;100970.78;5074310;28;761;-41
2022/08/06 08:06:21;;;;;;;;;;;;;;;28.30;42.83;100973.00;5061417;28;2153;-44
2022/08/06 08:09:02;;;;;;;;;;;;;;;28.31;43.25;100977.41;5073916;28;1418;-41
2022/08/06 08:11:31;;;;;;;;;;;;;;;28.29;43.22;100975.84;5074435;28;1013;-40
2022/08/06 08:14:19;;;;;;;;;;;;;;;28.46;43.06;100975.94;5074981;28;2234;-41
2022/08/06 08:16:48;;;;;;;;;;;;;;;28.38;43.72;100972.31;5062092;28;1987;-40
2022/08/06 08:19:22;;;;;;;;;;;;;;;28.35;44.04;100978.81;5054067;28;1033;-40
2022/08/06 08:21:52;;;;;;;;;;;;;;;28.42;44.07;100973.72;5054191;28;1189;-40
2022/08/06 08:24:19;;;;;;;;;;;;;;;28.44;43.86;100977.94;5069400;28;1123;-39
2022/08/06 08:26:45;;;;;;;;;;;;;;;28.57;43.89;100981.16;5069544;28;1328;-38
2022/08/06 08:29:32;;;;;;;;;;;;;;;28.48;44.40;100981.19;5053933;28;2172;-41
2022/08/06 08:32:00;;;;;;;;;;;;;;;28.56;44.08;100974.09;5054007;28;1185;-40
2022/08/06 08:34:31;;;;;;;;;;;;;;;28.64;44.15;100976.03;5054056;28;1599;-40
2022/08/06 08:36:59;;;;;;;;;;;;;;;28.60;44.47;100975.50;5057898;28;1914;-39
2022/08/06 08:39:27;;;;;;;;;;;;;;;28.66;44.71;100969.59;5070662;28;1168;-40
2022/08/06 08:42:19;;;;;;;;;;;;;;;29.05;43.38;100980.16;5073841;28;1319;-38
2022/08/06 08:44:59;;;;;;;;;;;;;;;28.85;44.43;100981.25;5070739;28;1125;-41
2022/08/06 08:47:26;;;;;;;;;;;;;;;29.35;42.16;100979.88;5072456;28;1407;-41
2022/08/06 08:50:15;;;;;;;;;;;;;;;29.43;42.01;100990.69;5072982;28;2180;-39
2022/08/06 08:52:44;;;;;;;;;;;;;;;29.03;43.89;100988.31;5072999;28;1432;-40
2022/08/06 08:55:15;;;;;;;;;;;;;;;29.17;42.61;100987.00;5073612;28;1195;-40
2022/08/06 08:58:02;;;;;;;;;;;;;;;29.07;43.68;100989.72;5072616;28;2292;-39
2022/08/06 09:00:49;;;;;;;;;;;;;;;29.04;44.16;100990.03;5073231;28;2084;-37
2022/08/06 09:03:20;;;;;;;;;;;;;;;29.07;44.30;100988.88;5073236;28;1378;-37
2022/08/06 09:05:49;;;;;;;;;;;;;;;29.05;43.99;100991.72;5073258;28;1036;-41
2022/08/06 09:08:19;;;;;;;;;;;;;;;29.14;44.45;100989.97;5057358;28;1288;-38
2022/08/06 09:11:06;;;;;;;;;;;;;;;29.25;43.95;100992.50;5072773;28;2031;-41
2022/08/06 09:13:52;;;;;;;;;;;;;;;29.30;43.63;100994.75;5072283;28;1999;-38
2022/08/06 09:16:26;;;;;;;;;;;;;;;29.31;43.60;101001.78;5070857;28;1909;-40
2022/08/06 09:18:58;;;;;;;;;;;;;;;29.29;43.15;100993.88;5072488;28;1434;-37
2022/08/06 09:21:25;;;;;;;;;;;;;;;29.35;43.00;100997.81;5072654;28;1061;-39
2022/08/06 09:23:57;;;;;;;;;;;;;;;29.09;44.17;101003.00;5072159;28;1189;-40
2022/08/06 09:26:24;;;;;;;;;;;;;;;29.20;43.59;101002.81;5069110;28;1245;-44
2022/08/06 09:29:20;;;;;;;;;;;;;;;29.69;40.73;101001.53;5062487;28;2179;-40
2022/08/06 09:31:57;;;;;;;;;;;;;;;29.86;42.03;101006.09;5065371;28;1337;-40
2022/08/06 09:34:38;;;;;;;;;;;;;;;29.55;43.19;101002.91;5070120;28;1504;-39
2022/08/06 09:37:07;;;;;;;;;;;;;;;29.48;43.60;100998.31;5067295;28;1918;-38
2022/08/06 09:39:44;;;;;;;;;;;;;;;29.47;43.73;100997.44;5070992;28;1065;-40
2022/08/06 09:42:40;;;;;;;;;;;;;;;29.73;42.74;101008.31;5071880;28;2209;-39
2022/08/06 09:45:09;;;;;;;;;;;;;;;29.37;44.26;101001.16;5072284;28;1123;-41
2022/08/06 09:47:43;;;;;;;;;;;;;;;29.49;43.50;101000.81;5072275;28;1308;-42
2022/08/06 09:50:37;;;;;;;;;;;;;;;29.74;41.35;101002.78;5071572;28;1084;-42
2022/08/06 09:53:08;;;;;;;;;;;;;;;29.59;43.16;100996.25;5070312;28;1358;-38
2022/08/06 09:55:40;;;;;;;;;;;;;;;29.66;41.13;101000.00;5067233;28;1188;-39
2022/08/06 09:58:07;;;;;;;;;;;;;;;29.54;43.17;100998.53;5070877;28;1304;-42
2022/08/06 10:00:36;;;;;;;;;;;;;;;29.55;43.17;100994.84;5072004;28;1069;-40
2022/08/06 10:03:07;;;;;;;;;;;;;;;29.86;39.85;100997.19;5071663;28;1327;-42
2022/08/06 10:06:04;;;;;;;;;;;;;;;29.82;42.77;100998.53;5071919;28;2165;-41
2022/08/06 10:08:31;;;;;;;;;;;;;;;29.63;43.15;100997.63;5071370;28;1304;-39
2022/08/06 10:11:02;;;;;;;;;;;;;;;29.47;43.76;101002.81;5071912;28;1012;-40
2022/08/06 10:13:34;;;;;;;;;;;;;;;29.64;42.71;100993.94;5071868;28;1280;-40
2022/08/06 10:16:20;;;;;;;;;;;;;;;29.45;43.49;101002.13;5070677;28;1964;-40
2022/08/06 10:18:55;;;;;;;;;;;;;;;29.50;42.65;100999.84;5072012;28;1327;-41
2022/08/06 10:21:28;;;;;;;;;;;;;;;29.85;41.26;100998.22;5071731;28;1006;-42
2022/08/06 10:24:08;;;;;;;;;;;;;;;30.21;40.61;101005.25;5072032;28;1068;-40
2022/08/06 10:26:35;;;;;;;;;;;;;;;30.24;40.71;100994.19;5070796;28;1064;-41
2022/08/06 10:29:04;;;;;;;;;;;;;;;30.36;38.90;101001.00;5070411;28;1316;-43
2022/08/06 10:31:31;;;;;;;;;;;;;;;30.92;37.74;100987.06;5067468;28;1162;-41
2022/08/06 10:34:21;;;;;;;;;;;;;;;30.17;40.54;100996.66;5069128;28;1371;-40
2022/08/06 10:36:58;;;;;;;;;;;;;;;29.97;41.87;100991.59;5070915;28;1905;-39
2022/08/06 10:39:31;;;;;;;;;;;;;;;29.75;42.35;100990.19;5072094;28;1287;-40
2022/08/06 10:42:17;;;;;;;;;;;;;;;30.48;39.19;100993.53;5076064;28;2057;-41
2022/08/06 10:44:48;;;;;;;;;;;;;;;30.07;40.97;100995.03;5086249;28;1152;-41
2022/08/06 10:47:16;;;;;;;;;;;;;;;30.09;41.29;100993.06;5076458;28;1817;-38
2022/08/06 10:49:44;;;;;;;;;;;;;;;30.13;42.13;100989.88;5082451;28;1155;-37
2022/08/06 10:52:31;;;;;;;;;;;;;;;30.21;41.94;100986.44;5071438;28;2185;-34
2022/08/06 10:54:59;;;;;;;;;;;;;;;30.20;42.39;100992.81;5090045;28;1215;-36
2022/08/06 10:57:27;;;;;;;;;;;;;;;30.32;40.74;100989.72;5075560;28;1902;-35
2022/08/06 11:00:03;;;;;;;;;;;;;;;30.96;38.42;100987.63;5069674;28;1126;-38
2022/08/06 11:02:50;;;;;;;;;;;;;;;30.10;43.11;100992.88;5070489;28;1264;-36
2022/08/06 11:05:26;;;;;;;;;;;;;;;30.58;40.46;100989.72;5064975;28;1230;-36
2022/08/06 11:07:53;;;;;;;;;;;;;;;30.37;40.70;100986.53;5073209;28;1408;-36
2022/08/06 11:10:46;;;;;;;;;;;;;;;30.20;41.66;100982.91;5071854;28;1052;-38
2022/08/06 11:13:23;;;;;;;;;;;;;;;30.99;38.86;100981.94;5051435;28;1648;-38
2022/08/06 11:16:21;;;;;;;;;;;;;;;31.02;39.21;100981.59;5055963;28;1902;-39
2022/08/06 11:18:57;;;;;;;;;;;;;;;30.41;41.08;100977.19;5073254;28;1343;-38
2022/08/06 11:21:40;;;;;;;;;;;;;;;31.02;39.34;100976.22;5072830;28;1060;-38
2022/08/06 11:24:26;;;;;;;;;;;;;;;30.84;39.23;100982.50;5072994;28;2157;-38
2022/08/06 11:26:54;;;;;;;;;;;;;;;31.20;38.28;100974.28;5073133;28;1264;-38
2022/08/06 11:29:56;;;;;;;;;;;;;;;30.33;41.05;100983.34;5073248;28;1075;-38
2022/08/06 11:32:43;;;;;;;;;;;;;;;30.63;38.50;100979.38;5073011;28;1378;-38
2022/08/06 11:35:29;;;;;;;;;;;;;;;30.55;39.67;100973.09;5071754;28;1636;-37
2022/08/06 11:37:56;;;;;;;;;;;;;;;30.44;40.08;100976.88;5072690;28;1914;-38
2022/08/06 11:40:54;;;;;;;;;;;;;;;30.65;38.87;100971.97;5073336;28;2069;-38
2022/08/06 11:43:41;;;;;;;;;;;;;;;30.48;39.83;100963.97;5054892;28;1212;-38
2022/08/06 11:46:29;;;;;;;;;;;;;;;30.22;40.57;100959.41;5086619;28;1471;-38
2022/08/06 11:49:04;;;;;;;;;;;;;;;30.39;39.96;100957.72;5074777;28;1390;-39
2022/08/06 11:51:37;;;;;;;;;;;;;;;30.46;39.69;100961.44;5072779;28;1528;-39
2022/08/06 11:54:09;;;;;;;;;;;;;;;31.26;38.00;100962.84;5072937;28;1039;-38
2022/08/06 11:56:56;;;;;;;;;;;;;;;30.46;39.97;100960.63;5070012;28;2001;-39
2022/08/06 11:59:25;;;;;;;;;;;;;;;31.18;38.38;100952.06;5069389;28;1449;-37
2022/08/06 12:01:52;;;;;;;;;;;;;;;31.43;37.24;100946.59;5069847;28;1433;-36
2022/08/06 12:04:31;;;;;;;;;;;;;;;32.33;36.01;100947.50;5072430;28;1263;-36
2022/08/06 12:07:17;;;;;;;;;;;;;;;32.37;35.95;100949.72;5073101;28;1252;-34
2022/08/06 12:10:05;;;;;;;;;;;;;;;32.41;36.56;100944.78;5073613;28;1045;-36
2022/08/06 12:12:40;;;;;;;;;;;;;;;32.74;36.48;100949.09;5073025;28;1268;-34
2022/08/06 12:15:14;;;;;;;;;;;;;;;32.92;35.50;100944.31;5072856;28;1103;-37
2022/08/06 12:18:03;;;;;;;;;;;;;;;32.83;35.83;100945.38;5072558;28;2323;-36
2022/08/06 12:20:50;;;;;;;;;;;;;;;32.82;36.04;100934.78;5072950;28;1523;-36
2022/08/06 12:23:22;;;;;;;;;;;;;;;32.53;37.11;100943.41;5073017;28;1339;-36
2022/08/06 12:26:08;;;;;;;;;;;;;;;32.64;37.15;100935.00;5072464;28;2314;-34
2022/08/06 12:28:35;;;;;;;;;;;;;;;32.79;37.09;100935.97;5072942;28;1236;-34
2022/08/06 12:31:03;;;;;;;;;;;;;;;32.75;37.09;100936.47;5072232;28;1492;-35
2022/08/06 12:33:50;;;;;;;;;;;;;;;32.93;37.01;100928.97;5070354;28;2173;-35
2022/08/06 12:36:17;;;;;;;;;;;;;;;32.85;37.52;100929.88;5072609;28;989;-35
2022/08/06 12:39:01;;;;;;;;;;;;;;;32.75;36.95;100926.53;5069213;28;1445;-36
2022/08/06 12:41:37;;;;;;;;;;;;;;;33.01;36.70;100921.69;5068597;28;1174;-38
2022/08/06 12:44:13;;;;;;;;;;;;;;;33.24;36.53;100918.22;5071106;28;1318;-37
2022/08/06 12:46:45;;;;;;;;;;;;;;;32.80;36.74;100913.34;5067701;28;1441;-38
2022/08/06 12:49:17;;;;;;;;;;;;;;;32.59;37.58;100907.69;5071786;28;1262;-35
2022/08/06 12:51:43;;;;;;;;;;;;;;;32.67;37.39;100907.69;5071167;28;1337;-37
2022/08/06 12:54:27;;;;;;;;;;;;;;;32.48;37.40;100902.66;5071834;28;1219;-37
2022/08/06 12:56:55;;;;;;;;;;;;;;;32.31;38.18;100903.72;5071200;28;1922;-36
2022/08/06 12:59:22;;;;;;;;;;;;;;;32.28;38.42;100895.97;5071019;28;1137;-35
2022/08/06 13:01:50;;;;;;;;;;;;;;;32.30;38.26;100902.03;5070679;28;1361;-34
2022/08/06 13:04:37;;;;;;;;;;;;;;;32.51;38.38;100894.22;5071250;28;2301;-35
2022/08/06 13:07:05;;;;;;;;;;;;;;;32.30;38.06;100899.34;5068687;28;1315;-36
2022/08/06 13:09:34;;;;;;;;;;;;;;;32.36;37.98;100895.94;5071773;28;1234;-35
2022/08/06 13:12:14;;;;;;;;;;;;;;;32.48;37.92;100891.88;5068387;28;1327;-36
2022/08/06 13:15:10;;;;;;;;;;;;;;;32.30;37.94;100891.25;5062498;28;2463;-36
2022/08/06 13:18:05;;;;;;;;;;;;;;;32.35;38.08;100888.88;5070184;28;1914;-35
2022/08/06 13:20:52;;;;;;;;;;;;;;;32.20;38.24;100877.13;5071218;28;2202;-36
2022/08/06 13:23:32;;;;;;;;;;;;;;;32.44;37.38;100882.44;5071830;28;1201;-36
2022/08/06 13:26:10;;;;;;;;;;;;;;;32.46;37.50;100883.97;5071518;28;1021;-36
2022/08/06 13:29:04;;;;;;;;;;;;;;;32.53;37.99;100873.31;5071897;28;1339;-36
2022/08/06 13:32:01;;;;;;;;;;;;;;;32.57;38.09;100871.97;5071205;28;2172;-37
2022/08/06 13:34:28;;;;;;;;;;;;;;;32.50;38.29;100868.25;5071506;28;1391;-36
2022/08/06 13:36:58;;;;;;;;;;;;;;;32.58;38.42;100868.28;5065699;28;1902;-36
2022/08/06 13:39:28;;;;;;;;;;;;;;;32.63;38.00;100867.75;5070345;28;1389;-37
2022/08/06 13:42:00;;;;;;;;;;;;;;;32.41;38.74;100863.91;5069292;28;1302;-36